createdAt,value
2022-12-18T00:00:48.909Z,13.10
2022-12-18T00:03:16.084Z,13.07
2022-12-18T00:05:53.161Z,12.67
2022-12-18T00:08:20.121Z,13.33
2022-12-18T00:10:47.084Z,14.00
2022-12-18T00:13:13.856Z,13.87
2022-12-18T00:15:40.658Z,13.20
2022-12-18T00:18:07.342Z,13.83
2022-12-18T00:20:39.056Z,14.17
2022-12-18T00:23:06.032Z,14.63
2022-12-18T00:25:36.606Z,15.20
2022-12-18T00:28:04.870Z,15.33
2022-12-18T00:30:31.396Z,14.13
2022-12-18T00:32:58.274Z,14.90
2022-12-18T00:35:24.663Z,15.33
2022-12-18T00:37:51.063Z,14.73
2022-12-18T00:40:17.494Z,15.67
2022-12-18T00:42:58.954Z,14.93
2022-12-18T00:45:26.382Z,14.87
2022-12-18T00:47:52.966Z,14.73
2022-12-18T00:50:19.757Z,15.57
2022-12-18T00:52:46.144Z,15.57
2022-12-18T00:55:12.719Z,15.63
2022-12-18T00:57:39.181Z,16.50
2022-12-18T01:00:07.725Z,16.20
2022-12-18T01:02:34.214Z,16.37
2022-12-18T01:05:00.734Z,16.10
2022-12-18T01:07:27.111Z,16.00
2022-12-18T01:09:53.472Z,15.90
2022-12-18T01:12:19.894Z,14.63
2022-12-18T01:14:46.350Z,15.47
2022-12-18T01:17:12.751Z,16.13
2022-12-18T01:19:39.219Z,16.50
2022-12-18T01:22:05.588Z,17.00
2022-12-18T01:24:31.998Z,16.27
2022-12-18T01:26:58.875Z,15.73
2022-12-18T01:29:25.240Z,16.57
2022-12-18T01:31:52.504Z,15.43
2022-12-18T01:34:18.910Z,16.73
2022-12-18T01:36:45.298Z,15.20
2022-12-18T01:39:13.735Z,14.70
2022-12-18T01:41:58.811Z,16.30
2022-12-18T01:44:53.328Z,15.97
2022-12-18T01:47:43.099Z,14.90
2022-12-18T01:50:19.941Z,15.20
2022-12-18T01:52:49.985Z,16.47
2022-12-18T01:55:19.479Z,16.93
2022-12-18T01:57:47.212Z,16.43
2022-12-18T02:00:17.432Z,16.47
2022-12-18T02:02:44.989Z,15.50
2022-12-18T02:05:12.909Z,16.77
2022-12-18T02:08:04.638Z,15.23
2022-12-18T02:10:34.099Z,15.90
2022-12-18T02:13:18.654Z,15.57
2022-12-18T02:15:49.921Z,14.90
2022-12-18T02:18:22.421Z,14.93
2022-12-18T02:21:00.453Z,16.20
2022-12-18T02:24:13.308Z,16.20
2022-12-18T02:26:47.946Z,14.80
2022-12-18T02:29:17.949Z,15.27
2022-12-18T02:31:54.849Z,15.20
2022-12-18T02:34:23.670Z,15.43
2022-12-18T02:36:50.928Z,14.37
2022-12-18T02:39:18.602Z,14.67
2022-12-18T02:41:45.182Z,14.73
2022-12-18T02:44:13.520Z,15.20
2022-12-18T02:46:49.819Z,14.33
2022-12-18T02:49:22.330Z,15.60
2022-12-18T02:51:55.968Z,16.07
2022-12-18T02:54:51.618Z,15.37
2022-12-18T02:57:36.766Z,15.10
2022-12-18T03:00:18.783Z,15.00
2022-12-18T03:02:57.426Z,15.20
2022-12-18T03:05:29.217Z,14.73
2022-12-18T03:08:09.361Z,14.90
2022-12-18T03:10:40.894Z,14.53
2022-12-18T03:13:11.675Z,14.83
2022-12-18T03:15:49.840Z,14.80
2022-12-18T03:18:19.743Z,15.37
2022-12-18T03:20:48.181Z,14.23
2022-12-18T03:23:24.329Z,14.47
2022-12-18T03:25:55.127Z,15.60
2022-12-18T03:28:23.017Z,14.83
2022-12-18T03:30:53.319Z,14.43
2022-12-18T03:33:28.844Z,14.43
2022-12-18T03:35:55.386Z,14.20
2022-12-18T03:38:21.822Z,14.97
2022-12-18T03:40:48.134Z,15.40
2022-12-18T03:43:41.026Z,14.93
2022-12-18T03:46:21.718Z,14.03
2022-12-18T03:49:12.370Z,15.03
2022-12-18T03:51:52.770Z,14.43
2022-12-18T03:54:19.862Z,14.30
2022-12-18T03:56:49.701Z,14.80
2022-12-18T03:59:17.572Z,14.37
2022-12-18T04:01:47.744Z,15.63
2022-12-18T04:04:16.408Z,14.57
2022-12-18T04:06:44.312Z,14.67
2022-12-18T04:09:10.850Z,14.70
2022-12-18T04:11:37.256Z,14.77
2022-12-18T04:14:07.060Z,14.97
2022-12-18T04:16:33.793Z,15.20
2022-12-18T04:19:00.205Z,15.67
2022-12-18T04:21:26.815Z,15.87
2022-12-18T04:23:53.302Z,15.37
2022-12-18T04:26:19.939Z,16.20
2022-12-18T04:28:46.644Z,16.83
2022-12-18T04:31:13.181Z,14.70
2022-12-18T04:33:40.062Z,14.80
2022-12-18T04:36:07.162Z,14.63
2022-12-18T04:38:33.751Z,14.97
2022-12-18T04:41:00.154Z,16.13
2022-12-18T04:43:26.614Z,16.80
2022-12-18T04:45:53.046Z,15.57
2022-12-18T04:48:21.081Z,16.03
2022-12-18T04:50:48.020Z,16.30
2022-12-18T04:53:14.390Z,17.00
2022-12-18T04:55:40.797Z,17.20
2022-12-18T04:58:07.231Z,16.60
2022-12-18T05:00:33.711Z,16.57
2022-12-18T05:03:02.571Z,16.80
2022-12-18T05:05:29.284Z,17.80
2022-12-18T05:07:55.757Z,17.50
2022-12-18T05:10:22.257Z,16.53
2022-12-18T05:13:01.195Z,15.67
2022-12-18T05:15:31.935Z,15.43
2022-12-18T05:17:59.195Z,15.80
2022-12-18T05:20:26.526Z,15.13
2022-12-18T05:22:54.937Z,14.97
2022-12-18T05:25:21.751Z,14.73
2022-12-18T05:27:48.446Z,14.50
2022-12-18T05:30:15.262Z,14.47
2022-12-18T05:32:42.033Z,14.37
2022-12-18T05:35:10.397Z,14.37
2022-12-18T05:37:42.543Z,14.53
2022-12-18T05:40:10.214Z,14.80
2022-12-18T05:42:36.630Z,14.13
2022-12-18T05:45:03.283Z,14.30
2022-12-18T05:47:29.814Z,14.87
2022-12-18T05:49:56.418Z,13.50
2022-12-18T05:52:22.833Z,14.67
2022-12-18T05:54:49.262Z,14.47
2022-12-18T05:57:15.685Z,15.43
2022-12-18T05:59:42.088Z,15.57
2022-12-18T06:02:08.782Z,14.63
2022-12-18T06:04:35.439Z,14.93
2022-12-18T06:07:04.734Z,13.67
2022-12-18T06:09:31.168Z,14.23
2022-12-18T06:11:57.564Z,14.63
2022-12-18T06:14:23.936Z,15.03
2022-12-18T06:16:52.336Z,13.20
2022-12-18T06:19:18.868Z,14.10
2022-12-18T06:21:45.492Z,14.57
2022-12-18T06:24:12.008Z,14.13
2022-12-18T06:26:39.885Z,15.20
2022-12-18T06:29:06.835Z,16.27
2022-12-18T06:31:33.467Z,15.40
2022-12-18T06:33:59.921Z,16.20
2022-12-18T06:36:26.996Z,16.10
2022-12-18T06:38:53.423Z,15.43
2022-12-18T06:41:21.298Z,14.60
2022-12-18T06:43:47.829Z,15.03
2022-12-18T06:46:14.546Z,16.20
2022-12-18T06:48:41.147Z,15.27
2022-12-18T06:51:07.659Z,16.43
2022-12-18T06:53:35.272Z,15.73
2022-12-18T06:56:08.013Z,15.60
2022-12-18T06:58:36.497Z,16.00
2022-12-18T07:01:04.892Z,15.57
2022-12-18T07:03:31.559Z,16.67
2022-12-18T07:05:57.996Z,16.43
2022-12-18T07:08:24.429Z,17.00
2022-12-18T07:10:55.958Z,16.77
2022-12-18T07:13:22.860Z,18.93
2022-12-18T07:15:49.305Z,17.30
2022-12-18T07:18:15.702Z,16.90
2022-12-18T07:20:42.130Z,17.47
2022-12-18T07:23:08.521Z,17.43
2022-12-18T07:25:38.350Z,17.07
2022-12-18T07:28:05.124Z,19.03
2022-12-18T07:30:31.530Z,18.20
2022-12-18T07:32:57.997Z,18.03
2022-12-18T07:35:25.305Z,18.77
2022-12-18T07:37:52.120Z,18.20
2022-12-18T07:40:18.598Z,17.57
2022-12-18T07:42:45.356Z,18.43
2022-12-18T07:45:11.839Z,18.00
2022-12-18T07:47:38.443Z,18.70
2022-12-18T07:50:05.664Z,18.93
2022-12-18T07:52:32.076Z,18.53
2022-12-18T07:54:59.646Z,17.07
2022-12-18T08:00:13.263Z,17.23
2022-12-18T08:02:39.824Z,16.90
2022-12-18T08:05:06.519Z,16.10
2022-12-18T08:07:33.561Z,17.20
2022-12-18T08:10:00.056Z,16.50
2022-12-18T08:12:26.469Z,15.37
2022-12-18T08:14:52.908Z,19.43
2022-12-18T08:17:21.072Z,17.13
2022-12-18T08:19:47.466Z,18.57
2022-12-18T08:22:13.846Z,18.63
2022-12-18T08:24:40.262Z,17.87
2022-12-18T08:27:29.002Z,21.07
2022-12-18T08:29:53.019Z,20.03
2022-12-18T08:32:19.494Z,20.40
2022-12-18T08:34:45.937Z,19.87
2022-12-18T08:37:12.334Z,18.53
2022-12-18T08:39:38.746Z,19.23
2022-12-18T08:42:23.800Z,18.77
2022-12-18T08:44:50.210Z,19.37
2022-12-18T08:47:16.588Z,20.50
2022-12-18T08:49:43.254Z,18.73
2022-12-18T08:52:10.386Z,19.77
2022-12-18T08:54:36.786Z,19.00
2022-12-18T08:57:03.357Z,20.00
2022-12-18T08:59:29.724Z,20.37
2022-12-18T09:01:56.436Z,20.10
2022-12-18T09:04:23.286Z,22.57
2022-12-18T09:06:50.497Z,21.20
2022-12-18T09:09:16.992Z,22.23
2022-12-18T09:11:43.466Z,20.90
2022-12-18T09:14:10.385Z,21.37
2022-12-18T09:16:36.944Z,21.53
2022-12-18T09:19:04.988Z,20.30
2022-12-18T09:21:35.132Z,19.53
2022-12-18T09:24:04.119Z,22.03
2022-12-18T09:26:31.790Z,20.83
2022-12-18T09:28:58.272Z,21.93
2022-12-18T09:31:25.638Z,20.00
2022-12-18T09:33:52.236Z,20.93
2022-12-18T09:36:19.129Z,22.80
2022-12-18T09:38:45.549Z,21.77
2022-12-18T09:41:30.296Z,22.03
2022-12-18T09:44:19.990Z,20.90
2022-12-18T09:47:19.218Z,22.50
2022-12-18T09:49:47.343Z,20.27
2022-12-18T09:52:20.447Z,21.60
2022-12-18T09:54:55.041Z,21.27
2022-12-18T09:57:23.246Z,22.00
2022-12-18T09:59:56.456Z,20.67
2022-12-18T10:02:25.378Z,21.03
2022-12-18T10:05:17.903Z,21.03
2022-12-18T10:08:14.743Z,21.97
2022-12-18T10:10:54.084Z,22.60
2022-12-18T10:13:38.931Z,24.63
2022-12-18T10:16:20.760Z,23.13
2022-12-18T10:18:50.187Z,24.50
2022-12-18T10:21:27.746Z,24.40
2022-12-18T10:24:26.633Z,20.90
2022-12-18T10:26:54.121Z,23.73
2022-12-18T10:29:20.656Z,23.00
2022-12-18T10:31:47.096Z,24.90
2022-12-18T10:34:13.968Z,24.40
2022-12-18T10:36:40.487Z,24.50
2022-12-18T10:39:24.077Z,23.77
2022-12-18T10:41:50.497Z,23.43
2022-12-18T10:44:19.585Z,22.13
2022-12-18T10:46:51.106Z,22.43
2022-12-18T10:49:24.268Z,25.67
2022-12-18T10:51:51.035Z,23.13
2022-12-18T10:54:23.778Z,23.37
2022-12-18T10:56:50.542Z,23.53
2022-12-18T10:59:18.468Z,23.17
2022-12-18T11:01:58.780Z,24.20
2022-12-18T11:04:30.856Z,24.73
2022-12-18T11:07:00.402Z,22.73
2022-12-18T11:09:30.662Z,24.07
2022-12-18T11:12:00.104Z,23.20
2022-12-18T11:14:30.367Z,24.73
2022-12-18T11:17:24.504Z,23.73
2022-12-18T11:19:43.891Z,23.73
2022-12-18T11:22:27.460Z,23.77
2022-12-18T11:27:53.929Z,24.13
2022-12-18T11:30:29.619Z,23.27
2022-12-18T11:33:05.174Z,24.77
2022-12-18T11:35:51.169Z,22.33
2022-12-18T11:38:30.743Z,21.63
2022-12-18T11:41:01.291Z,23.37
2022-12-18T11:43:34.857Z,23.40
2022-12-18T11:46:14.766Z,24.53
2022-12-18T11:48:53.506Z,24.07
2022-12-18T11:51:27.437Z,24.37
2022-12-18T11:53:53.995Z,23.20
2022-12-18T11:56:32.154Z,24.30
2022-12-18T11:59:19.747Z,23.80
2022-12-18T12:02:15.519Z,24.13
2022-12-18T12:05:10.248Z,23.73
2022-12-18T12:07:36.618Z,24.23
2022-12-18T12:10:26.279Z,23.47
2022-12-18T12:13:01.583Z,25.43
2022-12-18T12:15:37.220Z,24.73
2022-12-18T12:18:44.306Z,25.13
2022-12-18T12:21:32.533Z,28.00
2022-12-18T12:24:27.043Z,28.10
2022-12-18T12:27:03.297Z,29.83
2022-12-18T12:29:43.021Z,28.03
2022-12-18T12:32:18.454Z,28.67
2022-12-18T12:35:17.209Z,31.37
2022-12-18T12:38:10.263Z,30.80
2022-12-18T12:40:55.357Z,32.47
2022-12-18T12:43:51.112Z,34.97
2022-12-18T12:46:20.397Z,71.33
2022-12-18T12:48:50.080Z,41.30
2022-12-18T12:51:41.751Z,38.40
2022-12-18T12:54:16.351Z,34.20
2022-12-18T12:56:48.922Z,38.10
2022-12-18T12:59:28.951Z,28.13
2022-12-18T13:02:00.572Z,25.63
2022-12-18T13:04:47.048Z,27.37
2022-12-18T13:07:34.971Z,28.57
2022-12-18T13:10:23.793Z,28.80
2022-12-18T13:12:56.835Z,28.67
2022-12-18T13:15:48.279Z,28.67
2022-12-18T13:18:16.153Z,26.90
2022-12-18T13:20:53.115Z,27.70
2022-12-18T13:23:25.887Z,29.17
2022-12-18T13:25:58.411Z,26.53
2022-12-18T13:28:47.839Z,40.00
2022-12-18T13:31:40.384Z,26.17
2022-12-18T13:37:32.363Z,30.47
2022-12-18T13:39:59.134Z,31.63
2022-12-18T13:42:57.794Z,28.33
2022-12-18T13:45:46.147Z,31.67
2022-12-18T13:48:21.904Z,30.40
2022-12-18T13:50:59.172Z,36.97
2022-12-18T13:53:29.357Z,31.73
2022-12-18T13:55:56.069Z,29.80
2022-12-18T13:58:23.531Z,28.67
2022-12-18T14:00:50.056Z,31.00
2022-12-18T14:03:29.353Z,29.10
2022-12-18T14:06:16.124Z,27.70
2022-12-18T14:08:44.542Z,26.87
2022-12-18T14:11:21.802Z,26.27
2022-12-18T14:13:49.318Z,26.60
2022-12-18T14:16:17.995Z,27.23
2022-12-18T14:18:58.749Z,26.33
2022-12-18T14:21:33.381Z,25.70
2022-12-18T14:24:20.591Z,25.93
2022-12-18T14:26:50.425Z,70.67
2022-12-18T14:29:23.469Z,34.57
2022-12-18T14:32:17.069Z,38.27
2022-12-18T14:34:52.617Z,39.83
2022-12-18T14:37:23.240Z,38.50
2022-12-18T14:40:10.447Z,35.70
2022-12-18T14:42:38.192Z,33.33
2022-12-18T14:45:43.318Z,29.43
2022-12-18T14:48:22.851Z,34.70
2022-12-18T14:51:19.244Z,33.77
2022-12-18T14:53:54.162Z,28.80
2022-12-18T14:56:30.289Z,27.70
2022-12-18T14:59:01.423Z,28.57
2022-12-18T15:01:30.957Z,37.27
2022-12-18T15:03:58.809Z,27.43
2022-12-18T15:06:37.042Z,45.10
2022-12-18T15:09:23.507Z,31.80
2022-12-18T15:11:51.321Z,28.80
2022-12-18T15:14:30.048Z,48.53
2022-12-18T15:16:57.426Z,37.93
2022-12-18T15:19:48.455Z,35.87
2022-12-18T15:22:26.425Z,32.83
2022-12-18T15:24:52.964Z,31.63
2022-12-18T15:27:28.530Z,28.27
2022-12-18T15:30:21.194Z,29.90
2022-12-18T15:32:48.230Z,27.50
2022-12-18T15:35:20.741Z,27.70
2022-12-18T15:37:47.584Z,27.33
2022-12-18T15:40:21.959Z,38.43
2022-12-18T15:43:07.927Z,37.90
2022-12-18T15:45:34.396Z,31.20
2022-12-18T15:48:00.938Z,33.73
2022-12-18T15:50:27.378Z,32.93
2022-12-18T15:52:56.340Z,38.43
2022-12-18T15:55:42.855Z,34.03
2022-12-18T15:58:10.700Z,31.47
2022-12-18T16:00:39.413Z,40.43
2022-12-18T16:03:06.240Z,33.80
2022-12-18T16:05:33.299Z,30.23
2022-12-18T16:07:59.770Z,30.07
2022-12-18T16:10:27.062Z,29.40
2022-12-18T16:12:53.551Z,37.78
2022-12-18T16:15:24.480Z,29.43
2022-12-18T16:17:51.293Z,28.97
2022-12-18T16:20:19.817Z,27.97
2022-12-18T16:22:46.962Z,26.77
2022-12-18T16:25:28.422Z,27.13
2022-12-18T16:27:58.803Z,27.40
2022-12-18T16:30:28.709Z,28.13
2022-12-18T16:33:02.660Z,27.63
2022-12-18T16:35:29.173Z,28.90
2022-12-18T16:37:55.543Z,30.07
2022-12-18T16:40:22.004Z,28.20
2022-12-18T16:42:48.471Z,27.03
2022-12-18T16:45:18.563Z,26.90
2022-12-18T16:47:45.587Z,27.03
2022-12-18T16:50:12.284Z,28.87
2022-12-18T16:52:39.834Z,26.57
2022-12-18T16:55:06.692Z,26.83
2022-12-18T16:57:33.277Z,27.17
2022-12-18T17:00:04.729Z,26.97
2022-12-18T17:02:32.087Z,25.67
2022-12-18T17:04:59.297Z,26.40
2022-12-18T17:07:26.964Z,27.87
2022-12-18T17:09:54.111Z,27.10
2022-12-18T17:12:21.004Z,31.37
2022-12-18T17:14:47.510Z,28.63
2022-12-18T17:17:22.543Z,25.50
2022-12-18T17:19:50.072Z,26.27
2022-12-18T17:22:16.466Z,26.63
2022-12-18T17:24:42.890Z,27.40
2022-12-18T17:27:09.316Z,29.83
2022-12-18T17:29:35.925Z,29.67
2022-12-18T17:32:02.372Z,28.30
2022-12-18T17:34:29.032Z,28.30
2022-12-18T17:36:56.640Z,29.20
2022-12-18T17:39:23.096Z,29.60
2022-12-18T17:41:49.880Z,27.27
2022-12-18T17:44:17.043Z,27.00
2022-12-18T17:46:45.103Z,27.03
2022-12-18T17:49:11.983Z,27.13
2022-12-18T17:51:38.439Z,26.50
2022-12-18T17:54:05.394Z,26.47
2022-12-18T17:56:32.782Z,27.10
2022-12-18T17:58:59.227Z,26.90
2022-12-18T18:01:26.063Z,27.00
2022-12-18T18:03:54.161Z,28.10
2022-12-18T18:06:20.798Z,26.83
2022-12-18T18:08:47.322Z,26.90
2022-12-18T18:11:35.119Z,26.50
2022-12-18T18:14:04.103Z,27.10
2022-12-18T18:16:43.746Z,24.77
2022-12-18T18:19:16.361Z,25.63
2022-12-18T18:21:44.714Z,26.40
2022-12-18T18:24:13.403Z,25.27
2022-12-18T18:26:41.472Z,25.73
2022-12-18T18:29:08.557Z,27.30
2022-12-18T18:31:40.953Z,25.73
2022-12-18T18:34:08.463Z,25.37
2022-12-18T18:36:34.890Z,25.67
2022-12-18T18:39:02.152Z,25.80
2022-12-18T18:41:29.940Z,25.10
2022-12-18T18:43:57.754Z,27.07
2022-12-18T18:46:24.914Z,24.03
2022-12-18T18:48:51.570Z,25.27
2022-12-18T18:51:21.074Z,24.20
2022-12-18T18:53:49.786Z,25.00
2022-12-18T18:59:04.819Z,25.20
2022-12-18T19:01:31.426Z,24.10
2022-12-18T19:03:57.923Z,25.10
2022-12-18T19:06:26.606Z,25.40
2022-12-18T19:08:54.640Z,27.37
2022-12-18T19:11:40.727Z,24.40
2022-12-18T19:14:09.654Z,25.27
2022-12-18T19:16:36.605Z,26.33
2022-12-18T19:19:03.533Z,24.83
2022-12-18T19:21:31.383Z,25.33
2022-12-18T19:24:01.459Z,25.23
2022-12-18T19:26:28.735Z,24.47
2022-12-18T19:29:00.975Z,25.93
2022-12-18T19:31:33.407Z,25.57
2022-12-18T19:34:01.675Z,25.30
2022-12-18T19:36:30.194Z,26.97
2022-12-18T19:38:58.969Z,25.90
2022-12-18T19:41:26.121Z,29.60
2022-12-18T19:43:55.473Z,29.00
2022-12-18T19:46:23.004Z,31.17
2022-12-18T19:48:50.181Z,30.03
2022-12-18T19:51:17.626Z,31.27
2022-12-18T19:53:44.526Z,28.47
2022-12-18T19:56:16.841Z,31.00
2022-12-18T19:58:44.438Z,30.33
2022-12-18T20:01:16.618Z,30.17
2022-12-18T20:03:44.568Z,31.40
2022-12-18T20:06:30.414Z,29.67
2022-12-18T20:09:00.438Z,28.63
2022-12-18T20:11:31.290Z,26.83
2022-12-18T20:14:01.109Z,27.13
2022-12-18T20:16:27.638Z,23.70
2022-12-18T20:18:54.217Z,22.77
2022-12-18T20:21:21.131Z,25.07
2022-12-18T20:23:47.565Z,23.27
2022-12-18T20:26:14.015Z,24.93
2022-12-18T20:28:40.845Z,24.50
2022-12-18T20:31:13.363Z,23.67
2022-12-18T20:33:41.210Z,24.33
2022-12-18T20:36:11.111Z,23.47
2022-12-18T20:38:39.049Z,22.83
2022-12-18T20:41:19.261Z,21.73
2022-12-18T20:43:45.746Z,22.17
2022-12-18T20:46:13.636Z,23.90
2022-12-18T20:48:40.839Z,23.13
2022-12-18T20:51:15.825Z,24.00
2022-12-18T20:53:42.986Z,25.53
2022-12-18T20:56:21.825Z,24.07
2022-12-18T20:58:49.719Z,23.10
2022-12-18T21:01:20.937Z,24.97
2022-12-18T21:03:48.109Z,25.53
2022-12-18T21:06:16.950Z,26.27
2022-12-18T21:08:43.696Z,24.40
2022-12-18T21:11:42.510Z,22.97
2022-12-18T21:14:20.762Z,23.33
2022-12-18T21:16:47.714Z,23.57
2022-12-18T21:19:17.733Z,25.80
2022-12-18T21:21:44.626Z,25.10
2022-12-18T21:24:11.785Z,26.87
2022-12-18T21:26:44.909Z,25.10
2022-12-18T21:29:14.710Z,25.47
2022-12-18T21:31:41.630Z,24.97
2022-12-18T21:34:08.547Z,25.83
2022-12-18T21:36:35.085Z,22.63
2022-12-18T21:39:01.886Z,22.97
2022-12-18T21:41:47.696Z,23.33
2022-12-18T21:44:17.046Z,22.13
2022-12-18T21:46:48.965Z,22.73
2022-12-18T21:49:22.957Z,22.00
2022-12-18T21:51:51.923Z,23.37
2022-12-18T21:54:18.718Z,23.63
2022-12-18T21:56:45.088Z,22.60
2022-12-18T21:59:14.205Z,24.43
2022-12-18T22:01:40.741Z,25.03
2022-12-18T22:04:07.328Z,25.17
2022-12-18T22:06:33.745Z,23.97
2022-12-18T22:09:00.140Z,25.23
2022-12-18T22:11:26.593Z,23.67
2022-12-18T22:13:52.961Z,22.77
2022-12-18T22:16:19.419Z,22.90
2022-12-18T22:18:45.867Z,23.07
2022-12-18T22:21:29.893Z,24.00
2022-12-18T22:24:02.074Z,23.17
2022-12-18T22:26:30.438Z,22.67
2022-12-18T22:29:17.236Z,23.30
2022-12-18T22:31:43.929Z,22.90
2022-12-18T22:34:10.420Z,22.10
2022-12-18T22:36:41.580Z,23.30
2022-12-18T22:39:11.618Z,23.07
2022-12-18T22:41:37.987Z,23.23
2022-12-18T22:44:04.407Z,24.23
2022-12-18T22:46:33.414Z,22.33
2022-12-18T22:48:59.946Z,23.10
2022-12-18T22:51:26.344Z,23.60
2022-12-18T22:53:52.944Z,22.53
2022-12-18T22:56:21.550Z,25.03
2022-12-18T22:58:49.334Z,24.03
2022-12-18T23:01:22.109Z,25.10
2022-12-18T23:03:49.302Z,24.80
2022-12-18T23:06:16.252Z,24.63
2022-12-18T23:08:43.500Z,23.90
2022-12-18T23:11:10.654Z,24.07
2022-12-18T23:13:37.488Z,22.77
2022-12-18T23:16:08.362Z,23.30
2022-12-18T23:18:35.783Z,22.87
2022-12-18T23:21:06.853Z,22.47
2022-12-18T23:23:37.111Z,22.43
2022-12-18T23:26:05.773Z,24.50
2022-12-18T23:28:33.315Z,23.17
2022-12-18T23:31:14.272Z,23.63
2022-12-18T23:33:43.023Z,24.87
2022-12-18T23:36:11.186Z,24.80
2022-12-18T23:38:37.747Z,23.90
2022-12-18T23:41:13.011Z,25.83
2022-12-18T23:43:39.452Z,24.87
2022-12-18T23:46:30.864Z,24.67
2022-12-18T23:49:00.736Z,25.37
2022-12-18T23:51:27.825Z,26.97
2022-12-18T23:54:01.956Z,25.63
2022-12-18T23:56:29.355Z,24.27
2022-12-18T23:58:56.119Z,24.97
